sensor_id;sensor_type;location;lat;lon;timestamp;P1;durP1;ratioP1;P2;durP2;ratioP2
80270;SDS011;69573;45.560;10.200;2023-07-13T00:01:17;5.13;;;2.42;;
80270;SDS011;69573;45.560;10.200;2023-07-13T00:03:43;3.45;;;1.83;;
80270;SDS011;69573;45.560;10.200;2023-07-13T00:06:10;2.85;;;1.70;;
80270;SDS011;69573;45.560;10.200;2023-07-13T00:08:36;3.22;;;1.90;;
80270;SDS011;69573;45.560;10.200;2023-07-13T00:11:03;2.33;;;1.60;;
80270;SDS011;69573;45.560;10.200;2023-07-13T00:13:29;2.17;;;1.60;;
80270;SDS011;69573;45.560;10.200;2023-07-13T00:15:57;1.50;;;1.20;;
80270;SDS011;69573;45.560;10.200;2023-07-13T00:18:23;2.10;;;1.30;;
80270;SDS011;69573;45.560;10.200;2023-07-13T00:20:50;4.20;;;1.60;;
80270;SDS011;69573;45.560;10.200;2023-07-13T00:23:16;3.10;;;1.60;;
80270;SDS011;69573;45.560;10.200;2023-07-13T00:25:43;3.45;;;1.60;;
80270;SDS011;69573;45.560;10.200;2023-07-13T00:28:09;3.25;;;1.58;;
80270;SDS011;69573;45.560;10.200;2023-07-13T00:30:35;5.07;;;1.88;;
80270;SDS011;69573;45.560;10.200;2023-07-13T00:33:02;4.10;;;1.60;;
80270;SDS011;69573;45.560;10.200;2023-07-13T00:35:30;2.97;;;1.75;;
80270;SDS011;69573;45.560;10.200;2023-07-13T00:37:56;2.63;;;1.92;;
80270;SDS011;69573;45.560;10.200;2023-07-13T00:40:22;1.77;;;1.67;;
80270;SDS011;69573;45.560;10.200;2023-07-13T00:42:51;3.00;;;1.75;;
80270;SDS011;69573;45.560;10.200;2023-07-13T00:47:44;4.55;;;2.10;;
80270;SDS011;69573;45.560;10.200;2023-07-13T00:50:11;3.30;;;2.35;;
80270;SDS011;69573;45.560;10.200;2023-07-13T00:52:39;4.78;;;2.58;;
80270;SDS011;69573;45.560;10.200;2023-07-13T00:55:07;4.07;;;2.22;;
80270;SDS011;69573;45.560;10.200;2023-07-13T00:57:34;4.20;;;2.03;;
80270;SDS011;69573;45.560;10.200;2023-07-13T01:00:02;3.25;;;2.00;;
80270;SDS011;69573;45.560;10.200;2023-07-13T01:02:29;6.15;;;2.70;;
80270;SDS011;69573;45.560;10.200;2023-07-13T01:04:56;5.85;;;2.63;;
80270;SDS011;69573;45.560;10.200;2023-07-13T01:07:23;7.80;;;3.80;;
80270;SDS011;69573;45.560;10.200;2023-07-13T01:09:49;5.15;;;4.55;;
80270;SDS011;69573;45.560;10.200;2023-07-13T01:12:16;6.97;;;5.68;;
80270;SDS011;69573;45.560;10.200;2023-07-13T01:14:42;7.30;;;5.32;;
80270;SDS011;69573;45.560;10.200;2023-07-13T01:17:11;8.65;;;7.10;;
80270;SDS011;69573;45.560;10.200;2023-07-13T01:19:40;8.80;;;6.28;;
80270;SDS011;69573;45.560;10.200;2023-07-13T01:22:09;8.32;;;6.20;;
80270;SDS011;69573;45.560;10.200;2023-07-13T01:24:38;5.05;;;4.55;;
80270;SDS011;69573;45.560;10.200;2023-07-13T01:27:05;6.80;;;4.07;;
80270;SDS011;69573;45.560;10.200;2023-07-13T01:29:33;5.10;;;3.55;;
80270;SDS011;69573;45.560;10.200;2023-07-13T01:31:59;4.00;;;3.60;;
80270;SDS011;69573;45.560;10.200;2023-07-13T01:34:26;5.78;;;3.88;;
80270;SDS011;69573;45.560;10.200;2023-07-13T01:36:53;8.30;;;3.92;;
80270;SDS011;69573;45.560;10.200;2023-07-13T01:39:20;6.05;;;3.65;;
80270;SDS011;69573;45.560;10.200;2023-07-13T01:41:48;6.05;;;3.78;;
80270;SDS011;69573;45.560;10.200;2023-07-13T01:44:14;7.25;;;3.88;;
80270;SDS011;69573;45.560;10.200;2023-07-13T01:46:40;5.63;;;3.97;;
80270;SDS011;69573;45.560;10.200;2023-07-13T01:49:06;6.85;;;4.03;;
80270;SDS011;69573;45.560;10.200;2023-07-13T01:51:33;8.63;;;3.90;;
80270;SDS011;69573;45.560;10.200;2023-07-13T01:53:59;5.80;;;4.10;;
80270;SDS011;69573;45.560;10.200;2023-07-13T01:56:26;6.78;;;3.80;;
80270;SDS011;69573;45.560;10.200;2023-07-13T01:58:52;9.50;;;4.13;;
80270;SDS011;69573;45.560;10.200;2023-07-13T02:01:18;8.45;;;3.88;;
80270;SDS011;69573;45.560;10.200;2023-07-13T02:03:44;6.75;;;3.92;;
80270;SDS011;69573;45.560;10.200;2023-07-13T02:06:11;4.95;;;4.18;;
80270;SDS011;69573;45.560;10.200;2023-07-13T02:08:39;5.03;;;3.85;;
80270;SDS011;69573;45.560;10.200;2023-07-13T02:11:06;4.75;;;4.10;;
80270;SDS011;69573;45.560;10.200;2023-07-13T02:13:32;8.55;;;4.00;;
80270;SDS011;69573;45.560;10.200;2023-07-13T02:15:58;6.35;;;4.30;;
80270;SDS011;69573;45.560;10.200;2023-07-13T02:18:25;5.07;;;4.13;;
80270;SDS011;69573;45.560;10.200;2023-07-13T02:20:51;5.63;;;4.47;;
80270;SDS011;69573;45.560;10.200;2023-07-13T02:23:18;8.15;;;5.22;;
80270;SDS011;69573;45.560;10.200;2023-07-13T02:25:44;11.57;;;5.47;;
80270;SDS011;69573;45.560;10.200;2023-07-13T02:28:11;7.65;;;5.60;;
80270;SDS011;69573;45.560;10.200;2023-07-13T02:30:38;6.32;;;5.70;;
80270;SDS011;69573;45.560;10.200;2023-07-13T02:33:04;7.47;;;5.38;;
80270;SDS011;69573;45.560;10.200;2023-07-13T02:35:31;6.22;;;5.63;;
80270;SDS011;69573;45.560;10.200;2023-07-13T02:37:57;9.18;;;5.60;;
80270;SDS011;69573;45.560;10.200;2023-07-13T02:40:23;7.35;;;6.05;;
80270;SDS011;69573;45.560;10.200;2023-07-13T02:42:49;7.32;;;6.13;;
80270;SDS011;69573;45.560;10.200;2023-07-13T02:45:16;9.32;;;5.40;;
80270;SDS011;69573;45.560;10.200;2023-07-13T02:47:42;7.35;;;6.45;;
80270;SDS011;69573;45.560;10.200;2023-07-13T02:50:08;7.13;;;5.68;;
80270;SDS011;69573;45.560;10.200;2023-07-13T02:52:35;6.47;;;5.70;;
80270;SDS011;69573;45.560;10.200;2023-07-13T02:55:01;8.52;;;5.63;;
80270;SDS011;69573;45.560;10.200;2023-07-13T02:57:28;6.72;;;5.50;;
80270;SDS011;69573;45.560;10.200;2023-07-13T02:59:54;7.95;;;5.28;;
80270;SDS011;69573;45.560;10.200;2023-07-13T03:02:20;8.82;;;5.80;;
80270;SDS011;69573;45.560;10.200;2023-07-13T03:04:47;7.00;;;5.43;;
80270;SDS011;69573;45.560;10.200;2023-07-13T03:07:13;7.43;;;5.85;;
80270;SDS011;69573;45.560;10.200;2023-07-13T03:09:40;5.70;;;5.03;;
80270;SDS011;69573;45.560;10.200;2023-07-13T03:12:07;8.40;;;4.85;;
80270;SDS011;69573;45.560;10.200;2023-07-13T03:14:33;4.65;;;4.25;;
80270;SDS011;69573;45.560;10.200;2023-07-13T03:16:59;5.28;;;3.75;;
80270;SDS011;69573;45.560;10.200;2023-07-13T03:19:26;5.30;;;4.10;;
80270;SDS011;69573;45.560;10.200;2023-07-13T03:21:53;8.20;;;3.25;;
80270;SDS011;69573;45.560;10.200;2023-07-13T03:24:20;4.03;;;2.67;;
80270;SDS011;69573;45.560;10.200;2023-07-13T03:26:48;3.50;;;2.28;;
80270;SDS011;69573;45.560;10.200;2023-07-13T03:29:14;2.80;;;2.10;;
80270;SDS011;69573;45.560;10.200;2023-07-13T03:31:41;4.50;;;2.55;;
80270;SDS011;69573;45.560;10.200;2023-07-13T03:34:07;5.65;;;2.10;;
80270;SDS011;69573;45.560;10.200;2023-07-13T03:36:34;4.50;;;2.17;;
80270;SDS011;69573;45.560;10.200;2023-07-13T03:39:01;3.15;;;2.15;;
80270;SDS011;69573;45.560;10.200;2023-07-13T03:41:28;3.72;;;2.10;;
80270;SDS011;69573;45.560;10.200;2023-07-13T03:43:54;3.58;;;2.20;;
80270;SDS011;69573;45.560;10.200;2023-07-13T03:46:21;3.70;;;2.00;;
80270;SDS011;69573;45.560;10.200;2023-07-13T03:48:47;5.80;;;2.22;;
80270;SDS011;69573;45.560;10.200;2023-07-13T03:51:14;5.38;;;2.33;;
80270;SDS011;69573;45.560;10.200;2023-07-13T03:53:41;10.15;;;3.97;;
80270;SDS011;69573;45.560;10.200;2023-07-13T03:56:07;7.22;;;2.53;;
80270;SDS011;69573;45.560;10.200;2023-07-13T03:58:35;2.85;;;2.15;;
80270;SDS011;69573;45.560;10.200;2023-07-13T04:01:03;2.97;;;2.05;;
80270;SDS011;69573;45.560;10.200;2023-07-13T04:03:30;7.03;;;2.40;;
80270;SDS011;69573;45.560;10.200;2023-07-13T04:05:57;8.25;;;3.30;;
80270;SDS011;69573;45.560;10.200;2023-07-13T04:08:25;11.13;;;3.42;;
80270;SDS011;69573;45.560;10.200;2023-07-13T04:10:51;3.45;;;2.38;;
80270;SDS011;69573;45.560;10.200;2023-07-13T04:13:18;2.30;;;2.10;;
80270;SDS011;69573;45.560;10.200;2023-07-13T04:15:44;2.53;;;1.83;;
80270;SDS011;69573;45.560;10.200;2023-07-13T04:18:11;2.53;;;2.10;;
80270;SDS011;69573;45.560;10.200;2023-07-13T04:20:37;3.95;;;1.95;;
80270;SDS011;69573;45.560;10.200;2023-07-13T04:23:04;4.60;;;1.73;;
80270;SDS011;69573;45.560;10.200;2023-07-13T04:25:30;3.22;;;1.88;;
80270;SDS011;69573;45.560;10.200;2023-07-13T04:27:57;2.67;;;1.90;;
80270;SDS011;69573;45.560;10.200;2023-07-13T04:30:24;3.35;;;1.95;;
80270;SDS011;69573;45.560;10.200;2023-07-13T04:32:51;5.63;;;2.25;;
80270;SDS011;69573;45.560;10.200;2023-07-13T04:35:19;5.80;;;2.50;;
80270;SDS011;69573;45.560;10.200;2023-07-13T04:37:46;2.50;;;2.30;;
80270;SDS011;69573;45.560;10.200;2023-07-13T04:40:13;5.68;;;2.63;;
80270;SDS011;69573;45.560;10.200;2023-07-13T04:42:40;4.28;;;2.08;;
80270;SDS011;69573;45.560;10.200;2023-07-13T04:45:06;4.32;;;2.00;;
80270;SDS011;69573;45.560;10.200;2023-07-13T04:47:33;2.80;;;1.92;;
80270;SDS011;69573;45.560;10.200;2023-07-13T04:49:59;6.55;;;2.17;;
80270;SDS011;69573;45.560;10.200;2023-07-13T04:52:25;2.00;;;1.80;;
80270;SDS011;69573;45.560;10.200;2023-07-13T04:54:52;4.05;;;2.10;;
80270;SDS011;69573;45.560;10.200;2023-07-13T04:57:18;4.28;;;2.22;;
80270;SDS011;69573;45.560;10.200;2023-07-13T04:59:45;3.33;;;2.20;;
80270;SDS011;69573;45.560;10.200;2023-07-13T05:02:12;5.70;;;2.33;;
80270;SDS011;69573;45.560;10.200;2023-07-13T05:04:39;4.35;;;2.47;;
80270;SDS011;69573;45.560;10.200;2023-07-13T05:07:05;3.25;;;2.20;;
80270;SDS011;69573;45.560;10.200;2023-07-13T05:09:32;3.20;;;2.22;;
80270;SDS011;69573;45.560;10.200;2023-07-13T05:11:58;3.53;;;2.35;;
80270;SDS011;69573;45.560;10.200;2023-07-13T05:14:24;10.40;;;3.33;;
80270;SDS011;69573;45.560;10.200;2023-07-13T05:16:51;7.43;;;2.60;;
80270;SDS011;69573;45.560;10.200;2023-07-13T05:19:18;3.05;;;2.13;;
80270;SDS011;69573;45.560;10.200;2023-07-13T05:21:44;3.70;;;2.25;;
80270;SDS011;69573;45.560;10.200;2023-07-13T05:24:13;4.45;;;2.20;;
80270;SDS011;69573;45.560;10.200;2023-07-13T05:26:39;4.78;;;2.10;;
80270;SDS011;69573;45.560;10.200;2023-07-13T05:29:06;2.78;;;2.00;;
80270;SDS011;69573;45.560;10.200;2023-07-13T05:31:32;4.53;;;2.30;;
80270;SDS011;69573;45.560;10.200;2023-07-13T05:33:58;8.45;;;2.30;;
80270;SDS011;69573;45.560;10.200;2023-07-13T05:36:24;8.95;;;2.60;;
80270;SDS011;69573;45.560;10.200;2023-07-13T05:38:51;3.53;;;2.20;;
80270;SDS011;69573;45.560;10.200;2023-07-13T05:41:17;3.08;;;2.35;;
80270;SDS011;69573;45.560;10.200;2023-07-13T05:43:44;6.53;;;3.30;;
80270;SDS011;69573;45.560;10.200;2023-07-13T05:46:10;7.50;;;2.60;;
80270;SDS011;69573;45.560;10.200;2023-07-13T05:48:36;3.22;;;2.47;;
80270;SDS011;69573;45.560;10.200;2023-07-13T05:51:03;7.88;;;2.60;;
80270;SDS011;69573;45.560;10.200;2023-07-13T05:53:29;4.70;;;2.70;;
80270;SDS011;69573;45.560;10.200;2023-07-13T05:55:55;6.60;;;2.50;;
80270;SDS011;69573;45.560;10.200;2023-07-13T05:58:21;3.42;;;2.20;;
80270;SDS011;69573;45.560;10.200;2023-07-13T06:00:48;5.95;;;2.38;;
80270;SDS011;69573;45.560;10.200;2023-07-13T06:03:15;3.08;;;2.38;;
80270;SDS011;69573;45.560;10.200;2023-07-13T06:05:41;3.90;;;1.85;;
80270;SDS011;69573;45.560;10.200;2023-07-13T06:08:08;3.65;;;2.28;;
80270;SDS011;69573;45.560;10.200;2023-07-13T06:10:35;2.47;;;2.03;;
80270;SDS011;69573;45.560;10.200;2023-07-13T06:13:01;5.45;;;2.50;;
80270;SDS011;69573;45.560;10.200;2023-07-13T06:15:28;5.13;;;2.17;;
80270;SDS011;69573;45.560;10.200;2023-07-13T06:17:54;6.78;;;2.25;;
80270;SDS011;69573;45.560;10.200;2023-07-13T06:20:20;3.90;;;2.20;;
80270;SDS011;69573;45.560;10.200;2023-07-13T06:22:46;4.13;;;2.25;;
80270;SDS011;69573;45.560;10.200;2023-07-13T06:25:13;1.92;;;1.73;;
80270;SDS011;69573;45.560;10.200;2023-07-13T06:27:39;2.22;;;1.70;;
80270;SDS011;69573;45.560;10.200;2023-07-13T06:30:06;4.72;;;1.77;;
80270;SDS011;69573;45.560;10.200;2023-07-13T06:32:32;2.45;;;1.90;;
80270;SDS011;69573;45.560;10.200;2023-07-13T06:34:59;5.20;;;1.95;;
80270;SDS011;69573;45.560;10.200;2023-07-13T06:37:25;2.47;;;2.03;;
80270;SDS011;69573;45.560;10.200;2023-07-13T06:39:52;2.17;;;1.98;;
80270;SDS011;69573;45.560;10.200;2023-07-13T06:42:18;10.65;;;2.15;;
80270;SDS011;69573;45.560;10.200;2023-07-13T06:44:44;1.95;;;1.27;;
80270;SDS011;69573;45.560;10.200;2023-07-13T06:47:11;4.15;;;1.92;;
80270;SDS011;69573;45.560;10.200;2023-07-13T06:49:38;3.38;;;2.00;;
80270;SDS011;69573;45.560;10.200;2023-07-13T06:52:04;3.83;;;1.70;;
80270;SDS011;69573;45.560;10.200;2023-07-13T06:54:30;2.38;;;1.80;;
80270;SDS011;69573;45.560;10.200;2023-07-13T06:56:57;1.77;;;1.65;;
80270;SDS011;69573;45.560;10.200;2023-07-13T06:59:24;3.38;;;1.90;;
80270;SDS011;69573;45.560;10.200;2023-07-13T07:01:50;5.10;;;2.00;;
80270;SDS011;69573;45.560;10.200;2023-07-13T07:04:19;2.85;;;2.10;;
80270;SDS011;69573;45.560;10.200;2023-07-13T07:06:46;3.60;;;1.98;;
80270;SDS011;69573;45.560;10.200;2023-07-13T07:09:13;2.55;;;1.95;;
80270;SDS011;69573;45.560;10.200;2023-07-13T07:11:41;6.20;;;2.40;;
80270;SDS011;69573;45.560;10.200;2023-07-13T07:14:08;4.95;;;2.65;;
80270;SDS011;69573;45.560;10.200;2023-07-13T07:16:34;5.57;;;2.40;;
80270;SDS011;69573;45.560;10.200;2023-07-13T07:19:00;2.83;;;2.05;;
80270;SDS011;69573;45.560;10.200;2023-07-13T07:21:27;3.75;;;2.30;;
80270;SDS011;69573;45.560;10.200;2023-07-13T07:23:53;4.32;;;2.20;;
80270;SDS011;69573;45.560;10.200;2023-07-13T07:26:19;7.70;;;2.30;;
80270;SDS011;69573;45.560;10.200;2023-07-13T07:28:46;4.15;;;2.10;;
80270;SDS011;69573;45.560;10.200;2023-07-13T07:31:13;6.53;;;2.28;;
80270;SDS011;69573;45.560;10.200;2023-07-13T07:33:39;3.65;;;2.22;;
80270;SDS011;69573;45.560;10.200;2023-07-13T07:36:06;2.47;;;2.08;;
80270;SDS011;69573;45.560;10.200;2023-07-13T07:38:32;3.22;;;2.15;;
80270;SDS011;69573;45.560;10.200;2023-07-13T07:41:02;2.58;;;2.00;;
80270;SDS011;69573;45.560;10.200;2023-07-13T07:43:28;5.37;;;1.90;;
80270;SDS011;69573;45.560;10.200;2023-07-13T07:45:55;3.60;;;2.40;;
80270;SDS011;69573;45.560;10.200;2023-07-13T07:48:21;4.63;;;2.10;;
80270;SDS011;69573;45.560;10.200;2023-07-13T07:50:48;4.20;;;2.65;;
80270;SDS011;69573;45.560;10.200;2023-07-13T07:53:15;7.90;;;2.80;;
80270;SDS011;69573;45.560;10.200;2023-07-13T07:55:42;3.78;;;2.13;;
80270;SDS011;69573;45.560;10.200;2023-07-13T07:58:08;6.60;;;2.78;;
80270;SDS011;69573;45.560;10.200;2023-07-13T08:00:34;5.47;;;2.33;;
80270;SDS011;69573;45.560;10.200;2023-07-13T08:03:00;3.60;;;2.05;;
80270;SDS011;69573;45.560;10.200;2023-07-13T08:05:27;3.15;;;1.98;;
80270;SDS011;69573;45.560;10.200;2023-07-13T08:07:53;6.45;;;2.60;;
80270;SDS011;69573;45.560;10.200;2023-07-13T08:10:20;4.47;;;2.30;;
80270;SDS011;69573;45.560;10.200;2023-07-13T08:12:46;4.35;;;1.95;;
80270;SDS011;69573;45.560;10.200;2023-07-13T08:15:14;3.17;;;1.80;;
80270;SDS011;69573;45.560;10.200;2023-07-13T08:17:41;3.72;;;1.60;;
80270;SDS011;69573;45.560;10.200;2023-07-13T08:20:07;3.78;;;1.73;;
80270;SDS011;69573;45.560;10.200;2023-07-13T08:22:34;6.38;;;2.10;;
80270;SDS011;69573;45.560;10.200;2023-07-13T08:25:01;3.47;;;2.22;;
80270;SDS011;69573;45.560;10.200;2023-07-13T08:27:27;5.30;;;2.17;;
80270;SDS011;69573;45.560;10.200;2023-07-13T08:29:54;3.35;;;1.77;;
80270;SDS011;69573;45.560;10.200;2023-07-13T08:32:21;2.85;;;1.67;;
80270;SDS011;69573;45.560;10.200;2023-07-13T08:34:47;3.00;;;1.65;;
80270;SDS011;69573;45.560;10.200;2023-07-13T08:37:14;2.80;;;1.55;;
80270;SDS011;69573;45.560;10.200;2023-07-13T08:39:40;3.00;;;2.03;;
80270;SDS011;69573;45.560;10.200;2023-07-13T08:42:12;4.93;;;1.80;;
80270;SDS011;69573;45.560;10.200;2023-07-13T08:47:09;3.30;;;2.33;;
80270;SDS011;69573;45.560;10.200;2023-07-13T08:49:35;4.60;;;2.40;;
80270;SDS011;69573;45.560;10.200;2023-07-13T08:52:10;3.65;;;2.20;;
80270;SDS011;69573;45.560;10.200;2023-07-13T08:54:40;6.00;;;2.40;;
80270;SDS011;69573;45.560;10.200;2023-07-13T08:57:12;6.00;;;2.43;;
80270;SDS011;69573;45.560;10.200;2023-07-13T08:59:39;7.32;;;2.38;;
80270;SDS011;69573;45.560;10.200;2023-07-13T09:04:36;6.53;;;2.33;;
80270;SDS011;69573;45.560;10.200;2023-07-13T09:14:52;4.05;;;2.40;;
80270;SDS011;69573;45.560;10.200;2023-07-13T09:17:23;2.30;;;2.10;;
80270;SDS011;69573;45.560;10.200;2023-07-13T09:20:05;5.78;;;2.65;;
80270;SDS011;69573;45.560;10.200;2023-07-13T09:22:36;6.22;;;2.40;;
80270;SDS011;69573;45.560;10.200;2023-07-13T09:25:24;5.40;;;2.92;;
80270;SDS011;69573;45.560;10.200;2023-07-13T09:27:53;3.60;;;2.40;;
80270;SDS011;69573;45.560;10.200;2023-07-13T09:32:49;2.75;;;2.28;;
80270;SDS011;69573;45.560;10.200;2023-07-13T09:35:17;3.73;;;1.90;;
80270;SDS011;69573;45.560;10.200;2023-07-13T09:37:45;4.40;;;2.50;;
80270;SDS011;69573;45.560;10.200;2023-07-13T09:40:14;5.53;;;2.40;;
80270;SDS011;69573;45.560;10.200;2023-07-13T09:42:43;3.95;;;2.13;;
80270;SDS011;69573;45.560;10.200;2023-07-13T09:45:10;4.22;;;2.28;;
80270;SDS011;69573;45.560;10.200;2023-07-13T09:47:38;5.72;;;2.10;;
80270;SDS011;69573;45.560;10.200;2023-07-13T09:50:08;3.63;;;2.13;;
80270;SDS011;69573;45.560;10.200;2023-07-13T09:55:17;3.78;;;2.38;;
80270;SDS011;69573;45.560;10.200;2023-07-13T09:57:48;4.43;;;3.08;;
80270;SDS011;69573;45.560;10.200;2023-07-13T10:00:20;3.90;;;2.60;;
80270;SDS011;69573;45.560;10.200;2023-07-13T10:05:25;4.35;;;2.10;;
80270;SDS011;69573;45.560;10.200;2023-07-13T10:07:51;2.90;;;2.20;;
80270;SDS011;69573;45.560;10.200;2023-07-13T10:10:18;4.18;;;2.47;;
80270;SDS011;69573;45.560;10.200;2023-07-13T10:12:45;2.78;;;2.45;;
80270;SDS011;69573;45.560;10.200;2023-07-13T10:15:16;6.28;;;2.97;;
80270;SDS011;69573;45.560;10.200;2023-07-13T10:17:45;6.05;;;2.88;;
80270;SDS011;69573;45.560;10.200;2023-07-13T10:20:12;5.40;;;2.75;;
80270;SDS011;69573;45.560;10.200;2023-07-13T10:22:45;6.47;;;3.03;;
80270;SDS011;69573;45.560;10.200;2023-07-13T10:25:17;6.95;;;3.25;;
80270;SDS011;69573;45.560;10.200;2023-07-13T10:27:43;4.82;;;3.55;;
80270;SDS011;69573;45.560;10.200;2023-07-13T10:30:14;5.20;;;3.50;;
80270;SDS011;69573;45.560;10.200;2023-07-13T10:32:41;7.47;;;3.25;;
80270;SDS011;69573;45.560;10.200;2023-07-13T10:35:09;5.15;;;3.05;;
80270;SDS011;69573;45.560;10.200;2023-07-13T10:37:53;5.40;;;3.50;;
80270;SDS011;69573;45.560;10.200;2023-07-13T10:40:23;5.15;;;3.60;;
80270;SDS011;69573;45.560;10.200;2023-07-13T10:42:51;12.23;;;4.15;;
80270;SDS011;69573;45.560;10.200;2023-07-13T10:45:19;5.78;;;3.60;;
80270;SDS011;69573;45.560;10.200;2023-07-13T10:47:46;6.45;;;3.95;;
80270;SDS011;69573;45.560;10.200;2023-07-13T10:50:15;5.55;;;4.03;;
80270;SDS011;69573;45.560;10.200;2023-07-13T10:57:54;6.13;;;3.40;;
80270;SDS011;69573;45.560;10.200;2023-07-13T11:00:20;5.15;;;3.45;;
80270;SDS011;69573;45.560;10.200;2023-07-13T11:03:00;6.53;;;3.97;;
80270;SDS011;69573;45.560;10.200;2023-07-13T11:05:31;7.93;;;3.70;;
80270;SDS011;69573;45.560;10.200;2023-07-13T11:10:48;8.82;;;3.33;;
80270;SDS011;69573;45.560;10.200;2023-07-13T11:15:59;7.43;;;4.93;;
80270;SDS011;69573;45.560;10.200;2023-07-13T11:18:26;9.27;;;5.38;;
80270;SDS011;69573;45.560;10.200;2023-07-13T11:20:52;6.70;;;4.10;;
80270;SDS011;69573;45.560;10.200;2023-07-13T11:23:37;8.38;;;4.85;;
80270;SDS011;69573;45.560;10.200;2023-07-13T11:26:37;7.95;;;3.80;;
80270;SDS011;69573;45.560;10.200;2023-07-13T11:28:53;7.40;;;3.75;;
80270;SDS011;69573;45.560;10.200;2023-07-13T11:31:20;5.95;;;3.80;;
80270;SDS011;69573;45.560;10.200;2023-07-13T11:33:52;5.88;;;3.75;;
80270;SDS011;69573;45.560;10.200;2023-07-13T11:36:19;8.40;;;4.70;;
80270;SDS011;69573;45.560;10.200;2023-07-13T11:41:25;6.35;;;4.15;;
80270;SDS011;69573;45.560;10.200;2023-07-13T11:44:01;8.45;;;4.20;;
80270;SDS011;69573;45.560;10.200;2023-07-13T11:46:31;5.68;;;3.75;;
80270;SDS011;69573;45.560;10.200;2023-07-13T11:48:58;6.22;;;4.28;;
80270;SDS011;69573;45.560;10.200;2023-07-13T11:51:28;5.28;;;3.75;;
80270;SDS011;69573;45.560;10.200;2023-07-13T11:54:06;7.28;;;4.28;;
80270;SDS011;69573;45.560;10.200;2023-07-13T11:56:33;6.68;;;3.83;;
80270;SDS011;69573;45.560;10.200;2023-07-13T11:59:03;5.63;;;3.75;;
80270;SDS011;69573;45.560;10.200;2023-07-13T12:01:30;7.53;;;3.75;;
80270;SDS011;69573;45.560;10.200;2023-07-13T12:03:59;7.80;;;3.47;;
80270;SDS011;69573;45.560;10.200;2023-07-13T12:08:59;8.05;;;5.00;;
80270;SDS011;69573;45.560;10.200;2023-07-13T12:11:26;8.20;;;5.75;;
80270;SDS011;69573;45.560;10.200;2023-07-13T12:13:53;8.32;;;4.90;;
80270;SDS011;69573;45.560;10.200;2023-07-13T12:16:29;9.80;;;4.13;;
80270;SDS011;69573;45.560;10.200;2023-07-13T12:19:01;7.05;;;4.57;;
80270;SDS011;69573;45.560;10.200;2023-07-13T12:21:32;7.50;;;5.47;;
80270;SDS011;69573;45.560;10.200;2023-07-13T12:23:59;4.97;;;4.35;;
80270;SDS011;69573;45.560;10.200;2023-07-13T12:26:27;7.18;;;4.68;;
80270;SDS011;69573;45.560;10.200;2023-07-13T12:28:54;7.93;;;4.35;;
80270;SDS011;69573;45.560;10.200;2023-07-13T12:34:07;6.53;;;3.90;;
80270;SDS011;69573;45.560;10.200;2023-07-13T12:36:34;7.80;;;4.10;;
80270;SDS011;69573;45.560;10.200;2023-07-13T12:39:11;5.18;;;3.80;;
80270;SDS011;69573;45.560;10.200;2023-07-13T12:41:38;6.15;;;3.70;;
80270;SDS011;69573;45.560;10.200;2023-07-13T12:44:07;6.38;;;3.42;;
80270;SDS011;69573;45.560;10.200;2023-07-13T12:46:34;6.43;;;3.00;;
80270;SDS011;69573;45.560;10.200;2023-07-13T12:49:00;5.85;;;2.95;;
80270;SDS011;69573;45.560;10.200;2023-07-13T12:51:32;5.35;;;3.10;;
80270;SDS011;69573;45.560;10.200;2023-07-13T12:54:19;6.50;;;3.72;;
80270;SDS011;69573;45.560;10.200;2023-07-13T12:56:44;8.30;;;3.90;;
80270;SDS011;69573;45.560;10.200;2023-07-13T12:59:15;8.85;;;4.40;;
80270;SDS011;69573;45.560;10.200;2023-07-13T13:01:43;6.47;;;4.07;;
80270;SDS011;69573;45.560;10.200;2023-07-13T13:04:12;6.30;;;3.88;;
80270;SDS011;69573;45.560;10.200;2023-07-13T13:09:14;8.63;;;4.90;;
80270;SDS011;69573;45.560;10.200;2023-07-13T13:11:40;6.35;;;4.00;;
80270;SDS011;69573;45.560;10.200;2023-07-13T13:14:07;7.53;;;4.35;;
80270;SDS011;69573;45.560;10.200;2023-07-13T13:16:35;5.75;;;4.50;;
80270;SDS011;69573;45.560;10.200;2023-07-13T13:19:13;5.53;;;4.63;;
80270;SDS011;69573;45.560;10.200;2023-07-13T13:21:41;8.32;;;5.00;;
80270;SDS011;69573;45.560;10.200;2023-07-13T13:24:12;10.20;;;5.15;;
80270;SDS011;69573;45.560;10.200;2023-07-13T13:26:38;8.23;;;4.97;;
80270;SDS011;69573;45.560;10.200;2023-07-13T13:29:14;7.05;;;4.60;;
80270;SDS011;69573;45.560;10.200;2023-07-13T13:31:41;7.57;;;4.38;;
80270;SDS011;69573;45.560;10.200;2023-07-13T13:34:10;6.68;;;3.83;;
80270;SDS011;69573;45.560;10.200;2023-07-13T13:36:37;9.50;;;4.70;;
80270;SDS011;69573;45.560;10.200;2023-07-13T13:39:16;6.72;;;3.83;;
80270;SDS011;69573;45.560;10.200;2023-07-13T13:41:45;8.15;;;4.15;;
80270;SDS011;69573;45.560;10.200;2023-07-13T13:44:12;6.88;;;4.32;;
80270;SDS011;69573;45.560;10.200;2023-07-13T13:46:40;7.25;;;3.90;;
80270;SDS011;69573;45.560;10.200;2023-07-13T13:49:08;8.77;;;4.50;;
80270;SDS011;69573;45.560;10.200;2023-07-13T13:51:37;6.97;;;3.90;;
80270;SDS011;69573;45.560;10.200;2023-07-13T13:54:04;7.20;;;4.20;;
80270;SDS011;69573;45.560;10.200;2023-07-13T13:56:31;8.85;;;4.45;;
80270;SDS011;69573;45.560;10.200;2023-07-13T13:58:58;6.90;;;4.93;;
80270;SDS011;69573;45.560;10.200;2023-07-13T14:01:24;8.70;;;5.72;;
80270;SDS011;69573;45.560;10.200;2023-07-13T14:03:50;7.70;;;5.97;;
80270;SDS011;69573;45.560;10.200;2023-07-13T14:06:17;10.25;;;6.25;;
80270;SDS011;69573;45.560;10.200;2023-07-13T14:08:43;6.20;;;4.68;;
80270;SDS011;69573;45.560;10.200;2023-07-13T14:11:13;5.85;;;5.28;;
80270;SDS011;69573;45.560;10.200;2023-07-13T14:13:44;8.48;;;4.70;;
80270;SDS011;69573;45.560;10.200;2023-07-13T14:16:17;9.27;;;4.05;;
80270;SDS011;69573;45.560;10.200;2023-07-13T14:18:45;5.47;;;3.60;;
80270;SDS011;69573;45.560;10.200;2023-07-13T14:21:15;6.97;;;3.30;;
80270;SDS011;69573;45.560;10.200;2023-07-13T14:23:43;5.93;;;2.97;;
80270;SDS011;69573;45.560;10.200;2023-07-13T14:26:27;5.18;;;3.30;;
80270;SDS011;69573;45.560;10.200;2023-07-13T14:28:55;9.60;;;3.63;;
80270;SDS011;69573;45.560;10.200;2023-07-13T14:31:22;6.70;;;3.60;;
80270;SDS011;69573;45.560;10.200;2023-07-13T14:33:48;5.55;;;3.55;;
80270;SDS011;69573;45.560;10.200;2023-07-13T14:38:44;7.88;;;3.45;;
80270;SDS011;69573;45.560;10.200;2023-07-13T14:41:11;6.25;;;3.47;;
80270;SDS011;69573;45.560;10.200;2023-07-13T14:43:37;9.35;;;3.60;;
80270;SDS011;69573;45.560;10.200;2023-07-13T14:46:03;9.05;;;3.35;;
80270;SDS011;69573;45.560;10.200;2023-07-13T14:48:30;5.45;;;2.75;;
80270;SDS011;69573;45.560;10.200;2023-07-13T14:50:57;6.18;;;3.13;;
80270;SDS011;69573;45.560;10.200;2023-07-13T14:53:27;6.25;;;3.72;;
80270;SDS011;69573;45.560;10.200;2023-07-13T14:55:53;9.27;;;3.88;;
80270;SDS011;69573;45.560;10.200;2023-07-13T14:58:20;7.03;;;3.55;;
80270;SDS011;69573;45.560;10.200;2023-07-13T15:00:46;4.43;;;2.95;;
80270;SDS011;69573;45.560;10.200;2023-07-13T15:03:17;8.05;;;3.92;;
80270;SDS011;69573;45.560;10.200;2023-07-13T15:05:46;7.15;;;3.17;;
80270;SDS011;69573;45.560;10.200;2023-07-13T15:08:13;5.13;;;2.78;;
80270;SDS011;69573;45.560;10.200;2023-07-13T15:10:41;6.63;;;2.85;;
80270;SDS011;69573;45.560;10.200;2023-07-13T15:15:39;9.77;;;3.53;;
80270;SDS011;69573;45.560;10.200;2023-07-13T15:18:09;6.50;;;3.78;;
80270;SDS011;69573;45.560;10.200;2023-07-13T15:20:35;6.55;;;3.50;;
80270;SDS011;69573;45.560;10.200;2023-07-13T15:23:01;7.55;;;3.60;;
80270;SDS011;69573;45.560;10.200;2023-07-13T15:25:29;5.45;;;2.88;;